createdAt,value
2022-09-03T00:11:45.060Z,93.10
2022-09-03T00:26:55.027Z,93.60
2022-09-03T00:42:13.181Z,94.90
2022-09-03T00:57:30.595Z,95.40
2022-09-03T01:12:41.412Z,95.60
2022-09-03T01:28:13.358Z,97.50
2022-09-03T01:43:37.077Z,97.20
2022-09-03T01:58:48.090Z,97.00
2022-09-03T02:13:56.628Z,96.70
2022-09-03T02:29:03.473Z,96.90
2022-09-03T02:44:11.418Z,97.20
2022-09-03T02:59:17.869Z,97.80
2022-09-03T03:14:22.608Z,98.30
2022-09-03T03:29:28.364Z,99.30
2022-09-03T03:44:32.730Z,99.80
2022-09-03T03:59:37.129Z,99.90
2022-09-03T04:14:42.109Z,99.90
2022-09-03T04:29:46.672Z,99.90
2022-09-03T04:44:51.319Z,99.90
2022-09-03T04:59:56.486Z,99.90
2022-09-03T05:15:01.043Z,99.90
2022-09-03T05:30:06.993Z,99.90
2022-09-03T05:45:13.068Z,99.90
2022-09-03T06:00:19.590Z,99.90
2022-09-03T06:15:24.064Z,99.90
2022-09-03T06:30:28.519Z,99.90
2022-09-03T06:45:32.954Z,99.90
2022-09-03T07:00:37.403Z,99.90
2022-09-03T07:15:42.349Z,99.90
2022-09-03T07:30:46.707Z,99.90
2022-09-03T07:45:54.842Z,99.90
2022-09-03T08:01:00.047Z,99.90
2022-09-03T08:16:05.909Z,99.90
2022-09-03T08:31:12.332Z,99.90
2022-09-03T08:46:17.092Z,99.90
2022-09-03T09:01:32.187Z,99.90
2022-09-03T09:16:46.642Z,99.90
2022-09-03T09:31:51.059Z,99.90
2022-09-03T09:47:06.610Z,99.90
2022-09-03T10:02:22.087Z,99.90
2022-09-03T10:17:36.970Z,99.90
2022-09-03T10:32:48.663Z,99.90
2022-09-03T10:48:33.254Z,99.90
2022-09-03T11:03:46.564Z,99.90
2022-09-03T11:18:52.624Z,99.20
2022-09-03T11:34:02.289Z,99.80
2022-09-03T11:49:29.080Z,98.90
2022-09-03T12:04:43.462Z,98.20
2022-09-03T12:19:52.715Z,96.40
2022-09-03T12:34:57.515Z,95.50
2022-09-03T12:50:08.201Z,94.00
2022-09-03T13:05:18.698Z,95.50
2022-09-03T13:20:35.798Z,95.00
2022-09-03T13:35:47.015Z,98.00
2022-09-03T13:51:00.247Z,99.80
2022-09-03T14:06:14.957Z,99.90
2022-09-03T14:21:23.714Z,99.90
2022-09-03T14:36:36.129Z,99.90
2022-09-03T14:51:51.786Z,99.90
2022-09-03T15:07:17.701Z,99.30
2022-09-03T15:22:35.743Z,83.80
2022-09-03T15:37:47.922Z,71.70
2022-09-03T15:53:00.402Z,75.00
2022-09-03T16:08:13.735Z,67.70
2022-09-03T16:23:26.319Z,68.50
2022-09-03T16:38:43.797Z,67.90
2022-09-03T16:54:12.595Z,73.90
2022-09-03T17:09:29.956Z,76.60
2022-09-03T17:24:42.312Z,76.80
2022-09-03T17:40:19.701Z,76.70
2022-09-03T17:55:32.469Z,78.30
2022-09-03T18:10:45.757Z,79.90
2022-09-03T18:26:12.925Z,82.00
2022-09-03T18:42:01.104Z,83.40
2022-09-03T18:57:29.762Z,84.70
2022-09-03T19:13:03.976Z,85.40
2022-09-03T19:28:32.360Z,87.10
2022-09-03T19:44:04.058Z,88.50
2022-09-03T19:59:34.793Z,89.60
2022-09-03T20:14:39.441Z,90.50
2022-09-03T20:29:57.590Z,90.80
2022-09-03T20:45:08.393Z,90.90
2022-09-03T21:00:15.112Z,91.30
2022-09-03T21:15:27.341Z,91.60
2022-09-03T21:30:36.417Z,92.00
2022-09-03T21:45:47.781Z,92.40
